sensor_id;sensor_type;location;lat;lon;timestamp;P1;durP1;ratioP1;P2;durP2;ratioP2
24277;SDS011;12394;42.692;23.314;2023-07-20T00:01:10;9.90;;;3.43;;
24277;SDS011;12394;42.692;23.314;2023-07-20T00:03:36;10.43;;;3.17;;
24277;SDS011;12394;42.692;23.314;2023-07-20T00:06:01;7.47;;;3.03;;
24277;SDS011;12394;42.692;23.314;2023-07-20T00:08:27;11.13;;;3.33;;
24277;SDS011;12394;42.692;23.314;2023-07-20T00:10:52;9.67;;;3.63;;
24277;SDS011;12394;42.692;23.314;2023-07-20T00:13:17;11.33;;;3.50;;
24277;SDS011;12394;42.692;23.314;2023-07-20T00:15:44;6.43;;;3.60;;
24277;SDS011;12394;42.692;23.314;2023-07-20T00:18:09;12.50;;;4.00;;
24277;SDS011;12394;42.692;23.314;2023-07-20T00:20:35;12.00;;;3.73;;
24277;SDS011;12394;42.692;23.314;2023-07-20T00:23:00;10.83;;;3.43;;
24277;SDS011;12394;42.692;23.314;2023-07-20T00:25:26;17.27;;;3.60;;
24277;SDS011;12394;42.692;23.314;2023-07-20T00:27:52;6.90;;;3.10;;
24277;SDS011;12394;42.692;23.314;2023-07-20T00:30:18;11.73;;;3.37;;
24277;SDS011;12394;42.692;23.314;2023-07-20T00:32:43;8.43;;;3.33;;
24277;SDS011;12394;42.692;23.314;2023-07-20T00:35:09;9.37;;;3.33;;
24277;SDS011;12394;42.692;23.314;2023-07-20T00:37:36;7.23;;;2.97;;
24277;SDS011;12394;42.692;23.314;2023-07-20T00:40:02;11.10;;;3.40;;
24277;SDS011;12394;42.692;23.314;2023-07-20T00:42:30;7.17;;;3.47;;
24277;SDS011;12394;42.692;23.314;2023-07-20T00:44:56;11.63;;;3.53;;
24277;SDS011;12394;42.692;23.314;2023-07-20T00:47:21;6.77;;;3.33;;
24277;SDS011;12394;42.692;23.314;2023-07-20T00:49:47;8.97;;;3.00;;
24277;SDS011;12394;42.692;23.314;2023-07-20T00:52:13;8.70;;;3.43;;
24277;SDS011;12394;42.692;23.314;2023-07-20T00:54:40;13.63;;;4.23;;
24277;SDS011;12394;42.692;23.314;2023-07-20T00:57:07;13.40;;;3.90;;
24277;SDS011;12394;42.692;23.314;2023-07-20T00:59:33;7.73;;;3.43;;
24277;SDS011;12394;42.692;23.314;2023-07-20T01:01:59;13.57;;;3.00;;
24277;SDS011;12394;42.692;23.314;2023-07-20T01:04:25;8.90;;;3.20;;
24277;SDS011;12394;42.692;23.314;2023-07-20T01:07:13;11.10;;;3.53;;
24277;SDS011;12394;42.692;23.314;2023-07-20T01:12:43;8.13;;;3.37;;
24277;SDS011;12394;42.692;23.314;2023-07-20T01:15:17;7.97;;;2.83;;
24277;SDS011;12394;42.692;23.314;2023-07-20T01:17:42;8.20;;;3.57;;
24277;SDS011;12394;42.692;23.314;2023-07-20T01:20:10;7.60;;;3.00;;
24277;SDS011;12394;42.692;23.314;2023-07-20T01:23:00;9.30;;;3.13;;
24277;SDS011;12394;42.692;23.314;2023-07-20T01:33:46;10.33;;;5.50;;
24277;SDS011;12394;42.692;23.314;2023-07-20T01:36:13;10.17;;;4.20;;
24277;SDS011;12394;42.692;23.314;2023-07-20T01:38:41;13.70;;;4.57;;
24277;SDS011;12394;42.692;23.314;2023-07-20T01:41:07;10.47;;;4.00;;
24277;SDS011;12394;42.692;23.314;2023-07-20T01:43:34;8.20;;;4.00;;
24277;SDS011;12394;42.692;23.314;2023-07-20T01:45:59;10.97;;;4.27;;
24277;SDS011;12394;42.692;23.314;2023-07-20T01:48:25;12.83;;;5.60;;
24277;SDS011;12394;42.692;23.314;2023-07-20T01:50:50;10.70;;;4.97;;
24277;SDS011;12394;42.692;23.314;2023-07-20T01:53:15;11.10;;;5.40;;
24277;SDS011;12394;42.692;23.314;2023-07-20T01:55:41;14.47;;;4.97;;
24277;SDS011;12394;42.692;23.314;2023-07-20T01:58:06;11.30;;;4.50;;
24277;SDS011;12394;42.692;23.314;2023-07-20T02:00:32;16.17;;;4.57;;
24277;SDS011;12394;42.692;23.314;2023-07-20T02:02:58;10.37;;;4.47;;
24277;SDS011;12394;42.692;23.314;2023-07-20T02:05:23;10.53;;;4.30;;
24277;SDS011;12394;42.692;23.314;2023-07-20T02:07:49;8.17;;;4.30;;
24277;SDS011;12394;42.692;23.314;2023-07-20T02:10:15;10.60;;;4.20;;
24277;SDS011;12394;42.692;23.314;2023-07-20T02:12:40;9.57;;;3.83;;
24277;SDS011;12394;42.692;23.314;2023-07-20T02:15:06;16.20;;;4.40;;
24277;SDS011;12394;42.692;23.314;2023-07-20T02:17:33;12.50;;;3.57;;
24277;SDS011;12394;42.692;23.314;2023-07-20T02:19:58;9.67;;;4.03;;
24277;SDS011;12394;42.692;23.314;2023-07-20T02:22:24;14.97;;;4.13;;
24277;SDS011;12394;42.692;23.314;2023-07-20T02:24:49;11.13;;;4.33;;
24277;SDS011;12394;42.692;23.314;2023-07-20T02:27:15;11.70;;;4.50;;
24277;SDS011;12394;42.692;23.314;2023-07-20T02:29:41;10.23;;;3.90;;
24277;SDS011;12394;42.692;23.314;2023-07-20T02:32:07;10.60;;;4.17;;
24277;SDS011;12394;42.692;23.314;2023-07-20T02:34:34;15.03;;;4.27;;
24277;SDS011;12394;42.692;23.314;2023-07-20T02:37:00;9.73;;;4.10;;
24277;SDS011;12394;42.692;23.314;2023-07-20T02:39:29;9.60;;;3.80;;
24277;SDS011;12394;42.692;23.314;2023-07-20T02:41:54;11.10;;;3.97;;
24277;SDS011;12394;42.692;23.314;2023-07-20T02:44:20;11.17;;;3.90;;
24277;SDS011;12394;42.692;23.314;2023-07-20T02:46:45;10.37;;;3.63;;
24277;SDS011;12394;42.692;23.314;2023-07-20T02:49:11;11.87;;;3.30;;
24277;SDS011;12394;42.692;23.314;2023-07-20T02:51:37;11.83;;;3.87;;
24277;SDS011;12394;42.692;23.314;2023-07-20T02:54:02;10.50;;;3.73;;
24277;SDS011;12394;42.692;23.314;2023-07-20T02:56:28;10.67;;;3.47;;
24277;SDS011;12394;42.692;23.314;2023-07-20T02:58:54;8.20;;;3.57;;
24277;SDS011;12394;42.692;23.314;2023-07-20T03:01:19;8.63;;;3.37;;
24277;SDS011;12394;42.692;23.314;2023-07-20T03:03:45;15.93;;;3.73;;
24277;SDS011;12394;42.692;23.314;2023-07-20T03:06:13;12.57;;;4.27;;
24277;SDS011;12394;42.692;23.314;2023-07-20T03:08:39;12.07;;;4.33;;
24277;SDS011;12394;42.692;23.314;2023-07-20T03:11:06;9.80;;;3.77;;
24277;SDS011;12394;42.692;23.314;2023-07-20T03:13:32;12.23;;;3.87;;
24277;SDS011;12394;42.692;23.314;2023-07-20T03:15:57;12.30;;;4.13;;
24277;SDS011;12394;42.692;23.314;2023-07-20T03:18:22;13.80;;;4.30;;
24277;SDS011;12394;42.692;23.314;2023-07-20T03:20:48;11.23;;;4.20;;
24277;SDS011;12394;42.692;23.314;2023-07-20T03:23:13;9.57;;;3.40;;
24277;SDS011;12394;42.692;23.314;2023-07-20T03:25:40;12.70;;;4.10;;
24277;SDS011;12394;42.692;23.314;2023-07-20T03:28:06;10.90;;;4.07;;
24277;SDS011;12394;42.692;23.314;2023-07-20T03:30:31;15.97;;;4.50;;
24277;SDS011;12394;42.692;23.314;2023-07-20T03:32:57;16.10;;;4.53;;
24277;SDS011;12394;42.692;23.314;2023-07-20T03:35:22;7.80;;;3.80;;
24277;SDS011;12394;42.692;23.314;2023-07-20T03:37:48;17.47;;;4.37;;
24277;SDS011;12394;42.692;23.314;2023-07-20T03:40:14;10.80;;;3.97;;
24277;SDS011;12394;42.692;23.314;2023-07-20T03:42:41;16.87;;;4.43;;
24277;SDS011;12394;42.692;23.314;2023-07-20T03:45:07;10.13;;;3.97;;
24277;SDS011;12394;42.692;23.314;2023-07-20T03:47:32;13.43;;;4.23;;
24277;SDS011;12394;42.692;23.314;2023-07-20T03:49:58;6.40;;;3.33;;
24277;SDS011;12394;42.692;23.314;2023-07-20T03:52:23;12.77;;;4.27;;
24277;SDS011;12394;42.692;23.314;2023-07-20T03:54:49;10.97;;;3.30;;
24277;SDS011;12394;42.692;23.314;2023-07-20T03:57:16;15.30;;;4.70;;
24277;SDS011;12394;42.692;23.314;2023-07-20T03:59:44;9.27;;;4.10;;
24277;SDS011;12394;42.692;23.314;2023-07-20T04:02:10;14.50;;;4.77;;
24277;SDS011;12394;42.692;23.314;2023-07-20T04:04:36;10.77;;;3.73;;
24277;SDS011;12394;42.692;23.314;2023-07-20T04:07:01;12.90;;;4.37;;
24277;SDS011;12394;42.692;23.314;2023-07-20T04:09:27;15.93;;;4.33;;
24277;SDS011;12394;42.692;23.314;2023-07-20T04:11:52;9.37;;;4.57;;
24277;SDS011;12394;42.692;23.314;2023-07-20T04:14:17;12.93;;;4.37;;
24277;SDS011;12394;42.692;23.314;2023-07-20T04:16:43;10.53;;;3.93;;
24277;SDS011;12394;42.692;23.314;2023-07-20T04:19:11;13.93;;;4.33;;
24277;SDS011;12394;42.692;23.314;2023-07-20T04:21:39;14.57;;;4.47;;
24277;SDS011;12394;42.692;23.314;2023-07-20T04:24:06;10.03;;;3.67;;
24277;SDS011;12394;42.692;23.314;2023-07-20T04:26:31;14.27;;;4.93;;
24277;SDS011;12394;42.692;23.314;2023-07-20T04:28:57;15.60;;;4.87;;
24277;SDS011;12394;42.692;23.314;2023-07-20T04:31:24;7.90;;;4.00;;
24277;SDS011;12394;42.692;23.314;2023-07-20T04:33:49;13.33;;;4.40;;
24277;SDS011;12394;42.692;23.314;2023-07-20T04:36:15;12.90;;;4.17;;
24277;SDS011;12394;42.692;23.314;2023-07-20T04:38:44;12.50;;;4.27;;
24277;SDS011;12394;42.692;23.314;2023-07-20T04:41:10;16.00;;;5.17;;
24277;SDS011;12394;42.692;23.314;2023-07-20T04:43:41;19.83;;;6.00;;
24277;SDS011;12394;42.692;23.314;2023-07-20T04:46:09;13.13;;;4.93;;
24277;SDS011;12394;42.692;23.314;2023-07-20T04:48:35;14.53;;;5.00;;
24277;SDS011;12394;42.692;23.314;2023-07-20T04:51:01;13.60;;;5.00;;
24277;SDS011;12394;42.692;23.314;2023-07-20T04:53:26;13.50;;;4.83;;
24277;SDS011;12394;42.692;23.314;2023-07-20T04:55:51;11.50;;;4.63;;
24277;SDS011;12394;42.692;23.314;2023-07-20T04:58:20;12.20;;;5.33;;
24277;SDS011;12394;42.692;23.314;2023-07-20T05:00:48;11.17;;;4.50;;
24277;SDS011;12394;42.692;23.314;2023-07-20T05:03:14;19.97;;;5.73;;
24277;SDS011;12394;42.692;23.314;2023-07-20T05:05:39;11.97;;;4.87;;
24277;SDS011;12394;42.692;23.314;2023-07-20T05:08:05;14.23;;;4.50;;
24277;SDS011;12394;42.692;23.314;2023-07-20T05:10:30;18.80;;;5.30;;
24277;SDS011;12394;42.692;23.314;2023-07-20T05:12:57;15.70;;;4.80;;
24277;SDS011;12394;42.692;23.314;2023-07-20T05:15:22;15.00;;;6.97;;
24277;SDS011;12394;42.692;23.314;2023-07-20T05:17:48;11.40;;;5.13;;
24277;SDS011;12394;42.692;23.314;2023-07-20T05:20:13;13.40;;;5.63;;
24277;SDS011;12394;42.692;23.314;2023-07-20T05:22:39;13.47;;;5.13;;
24277;SDS011;12394;42.692;23.314;2023-07-20T05:25:07;8.90;;;4.97;;
24277;SDS011;12394;42.692;23.314;2023-07-20T05:27:35;17.17;;;5.67;;
24277;SDS011;12394;42.692;23.314;2023-07-20T05:30:01;15.07;;;5.57;;
24277;SDS011;12394;42.692;23.314;2023-07-20T05:32:27;19.83;;;9.40;;
24277;SDS011;12394;42.692;23.314;2023-07-20T05:34:53;19.30;;;7.37;;
24277;SDS011;12394;42.692;23.314;2023-07-20T05:37:19;14.57;;;4.80;;
24277;SDS011;12394;42.692;23.314;2023-07-20T05:39:45;17.20;;;4.40;;
24277;SDS011;12394;42.692;23.314;2023-07-20T05:42:10;10.17;;;4.03;;
24277;SDS011;12394;42.692;23.314;2023-07-20T05:44:35;21.10;;;12.57;;
24277;SDS011;12394;42.692;23.314;2023-07-20T05:47:01;16.27;;;7.07;;
24277;SDS011;12394;42.692;23.314;2023-07-20T05:49:27;19.03;;;7.07;;
24277;SDS011;12394;42.692;23.314;2023-07-20T05:51:53;21.20;;;9.17;;
24277;SDS011;12394;42.692;23.314;2023-07-20T05:54:20;17.23;;;8.10;;
24277;SDS011;12394;42.692;23.314;2023-07-20T05:56:45;22.47;;;6.67;;
24277;SDS011;12394;42.692;23.314;2023-07-20T05:59:11;16.77;;;7.70;;
24277;SDS011;12394;42.692;23.314;2023-07-20T06:01:37;14.23;;;5.20;;
24277;SDS011;12394;42.692;23.314;2023-07-20T06:04:02;18.90;;;6.13;;
24277;SDS011;12394;42.692;23.314;2023-07-20T06:06:28;11.60;;;5.00;;
24277;SDS011;12394;42.692;23.314;2023-07-20T06:08:54;15.20;;;5.93;;
24277;SDS011;12394;42.692;23.314;2023-07-20T06:11:19;14.57;;;7.73;;
24277;SDS011;12394;42.692;23.314;2023-07-20T06:13:45;11.73;;;5.37;;
24277;SDS011;12394;42.692;23.314;2023-07-20T06:16:10;10.53;;;4.70;;
24277;SDS011;12394;42.692;23.314;2023-07-20T06:18:36;12.10;;;5.80;;
24277;SDS011;12394;42.692;23.314;2023-07-20T06:21:01;20.27;;;6.70;;
24277;SDS011;12394;42.692;23.314;2023-07-20T06:23:27;18.67;;;7.07;;
24277;SDS011;12394;42.692;23.314;2023-07-20T06:25:52;27.47;;;9.47;;
24277;SDS011;12394;42.692;23.314;2023-07-20T06:28:18;13.20;;;6.87;;
24277;SDS011;12394;42.692;23.314;2023-07-20T06:30:43;16.67;;;5.93;;
24277;SDS011;12394;42.692;23.314;2023-07-20T06:33:09;16.27;;;6.07;;
24277;SDS011;12394;42.692;23.314;2023-07-20T06:35:34;15.53;;;6.00;;
24277;SDS011;12394;42.692;23.314;2023-07-20T06:38:02;13.50;;;6.33;;
24277;SDS011;12394;42.692;23.314;2023-07-20T06:40:29;18.20;;;6.37;;
24277;SDS011;12394;42.692;23.314;2023-07-20T06:42:57;18.83;;;6.73;;
24277;SDS011;12394;42.692;23.314;2023-07-20T06:45:22;21.40;;;9.00;;
24277;SDS011;12394;42.692;23.314;2023-07-20T06:47:47;19.00;;;6.53;;
24277;SDS011;12394;42.692;23.314;2023-07-20T06:50:13;19.13;;;6.73;;
24277;SDS011;12394;42.692;23.314;2023-07-20T06:52:39;24.00;;;7.50;;
24277;SDS011;12394;42.692;23.314;2023-07-20T06:55:05;15.37;;;6.13;;
24277;SDS011;12394;42.692;23.314;2023-07-20T06:57:31;24.53;;;7.87;;
24277;SDS011;12394;42.692;23.314;2023-07-20T06:59:57;15.60;;;7.10;;
24277;SDS011;12394;42.692;23.314;2023-07-20T07:02:22;30.07;;;8.43;;
24277;SDS011;12394;42.692;23.314;2023-07-20T07:04:47;13.87;;;6.97;;
24277;SDS011;12394;42.692;23.314;2023-07-20T07:07:16;16.90;;;6.60;;
24277;SDS011;12394;42.692;23.314;2023-07-20T07:09:41;15.90;;;5.90;;
24277;SDS011;12394;42.692;23.314;2023-07-20T07:12:07;19.63;;;6.03;;
24277;SDS011;12394;42.692;23.314;2023-07-20T07:14:33;16.87;;;6.47;;
24277;SDS011;12394;42.692;23.314;2023-07-20T07:16:59;13.43;;;5.40;;
24277;SDS011;12394;42.692;23.314;2023-07-20T07:19:25;16.27;;;6.17;;
24277;SDS011;12394;42.692;23.314;2023-07-20T07:21:50;23.70;;;6.30;;
24277;SDS011;12394;42.692;23.314;2023-07-20T07:24:35;16.13;;;6.10;;
24277;SDS011;12394;42.692;23.314;2023-07-20T07:27:01;17.10;;;6.03;;
24277;SDS011;12394;42.692;23.314;2023-07-20T07:29:27;17.73;;;5.17;;
24277;SDS011;12394;42.692;23.314;2023-07-20T07:31:52;20.27;;;5.93;;
24277;SDS011;12394;42.692;23.314;2023-07-20T07:34:18;18.00;;;5.83;;
24277;SDS011;12394;42.692;23.314;2023-07-20T07:36:43;18.20;;;6.33;;
24277;SDS011;12394;42.692;23.314;2023-07-20T07:39:10;11.97;;;5.23;;
24277;SDS011;12394;42.692;23.314;2023-07-20T07:41:35;11.87;;;5.67;;
24277;SDS011;12394;42.692;23.314;2023-07-20T07:44:01;16.97;;;6.67;;
24277;SDS011;12394;42.692;23.314;2023-07-20T07:46:26;13.07;;;5.50;;
24277;SDS011;12394;42.692;23.314;2023-07-20T07:48:51;16.97;;;5.57;;
24277;SDS011;12394;42.692;23.314;2023-07-20T07:51:18;19.93;;;5.33;;
24277;SDS011;12394;42.692;23.314;2023-07-20T07:53:44;13.60;;;5.50;;
24277;SDS011;12394;42.692;23.314;2023-07-20T07:56:09;12.97;;;5.77;;
24277;SDS011;12394;42.692;23.314;2023-07-20T07:58:35;25.03;;;7.03;;
24277;SDS011;12394;42.692;23.314;2023-07-20T08:01:00;15.43;;;6.03;;
24277;SDS011;12394;42.692;23.314;2023-07-20T08:03:25;14.37;;;5.63;;
24277;SDS011;12394;42.692;23.314;2023-07-20T08:05:53;13.10;;;5.00;;
24277;SDS011;12394;42.692;23.314;2023-07-20T08:08:20;14.10;;;5.77;;
24277;SDS011;12394;42.692;23.314;2023-07-20T08:10:45;14.20;;;5.73;;
24277;SDS011;12394;42.692;23.314;2023-07-20T08:13:11;16.43;;;5.33;;
24277;SDS011;12394;42.692;23.314;2023-07-20T08:15:36;14.17;;;5.40;;
24277;SDS011;12394;42.692;23.314;2023-07-20T08:18:02;15.90;;;7.00;;
24277;SDS011;12394;42.692;23.314;2023-07-20T08:20:27;19.47;;;7.10;;
24277;SDS011;12394;42.692;23.314;2023-07-20T08:22:54;16.83;;;5.30;;
24277;SDS011;12394;42.692;23.314;2023-07-20T08:25:20;19.93;;;5.63;;
24277;SDS011;12394;42.692;23.314;2023-07-20T08:27:46;12.33;;;5.33;;
24277;SDS011;12394;42.692;23.314;2023-07-20T08:30:12;9.90;;;4.47;;
24277;SDS011;12394;42.692;23.314;2023-07-20T08:32:38;13.60;;;4.40;;
24277;SDS011;12394;42.692;23.314;2023-07-20T08:35:04;8.67;;;4.07;;
24277;SDS011;12394;42.692;23.314;2023-07-20T08:37:31;14.07;;;4.83;;
24277;SDS011;12394;42.692;23.314;2023-07-20T08:39:56;10.90;;;4.97;;
24277;SDS011;12394;42.692;23.314;2023-07-20T08:42:22;11.57;;;4.83;;
24277;SDS011;12394;42.692;23.314;2023-07-20T08:44:48;16.50;;;4.43;;
24277;SDS011;12394;42.692;23.314;2023-07-20T08:47:13;11.53;;;4.67;;
24277;SDS011;12394;42.692;23.314;2023-07-20T08:49:41;13.43;;;4.50;;
24277;SDS011;12394;42.692;23.314;2023-07-20T08:52:07;10.55;;;3.92;;
24277;SDS011;12394;42.692;23.314;2023-07-20T08:54:34;11.13;;;3.90;;
24277;SDS011;12394;42.692;23.314;2023-07-20T08:57:03;13.02;;;4.15;;
24277;SDS011;12394;42.692;23.314;2023-07-20T08:59:30;17.35;;;3.88;;
24277;SDS011;12394;42.692;23.314;2023-07-20T09:01:57;16.98;;;4.35;;
24277;SDS011;12394;42.692;23.314;2023-07-20T09:04:24;14.77;;;4.10;;
24277;SDS011;12394;42.692;23.314;2023-07-20T09:06:49;13.00;;;4.35;;
24277;SDS011;12394;42.692;23.314;2023-07-20T09:09:15;11.63;;;3.90;;
24277;SDS011;12394;42.692;23.314;2023-07-20T09:11:41;10.60;;;4.75;;
24277;SDS011;12394;42.692;23.314;2023-07-20T09:14:07;10.57;;;3.60;;
24277;SDS011;12394;42.692;23.314;2023-07-20T09:16:46;12.13;;;3.90;;
24277;SDS011;12394;42.692;23.314;2023-07-20T09:19:14;7.72;;;3.92;;
24277;SDS011;12394;42.692;23.314;2023-07-20T09:21:46;8.75;;;3.90;;
24277;SDS011;12394;42.692;23.314;2023-07-20T09:24:13;8.60;;;3.17;;
24277;SDS011;12394;42.692;23.314;2023-07-20T09:26:42;14.82;;;4.13;;
24277;SDS011;12394;42.692;23.314;2023-07-20T09:29:09;7.22;;;3.60;;
24277;SDS011;12394;42.692;23.314;2023-07-20T09:31:35;12.27;;;3.70;;
24277;SDS011;12394;42.692;23.314;2023-07-20T09:34:01;11.35;;;3.80;;
24277;SDS011;12394;42.692;23.314;2023-07-20T09:36:26;7.95;;;3.45;;
24277;SDS011;12394;42.692;23.314;2023-07-20T09:38:53;10.32;;;4.13;;
24277;SDS011;12394;42.692;23.314;2023-07-20T09:41:19;7.20;;;3.65;;
24277;SDS011;12394;42.692;23.314;2023-07-20T09:43:46;11.25;;;4.32;;
24277;SDS011;12394;42.692;23.314;2023-07-20T09:46:12;12.27;;;3.53;;
24277;SDS011;12394;42.692;23.314;2023-07-20T09:48:38;11.05;;;4.28;;
24277;SDS011;12394;42.692;23.314;2023-07-20T09:51:04;7.95;;;4.00;;
24277;SDS011;12394;42.692;23.314;2023-07-20T09:53:32;11.95;;;3.50;;
24277;SDS011;12394;42.692;23.314;2023-07-20T09:55:58;12.50;;;3.40;;
24277;SDS011;12394;42.692;23.314;2023-07-20T09:58:25;10.95;;;4.13;;
24277;SDS011;12394;42.692;23.314;2023-07-20T10:00:51;10.88;;;4.00;;
24277;SDS011;12394;42.692;23.314;2023-07-20T10:03:22;6.63;;;3.42;;
24277;SDS011;12394;42.692;23.314;2023-07-20T10:06:15;8.02;;;3.85;;
24277;SDS011;12394;42.692;23.314;2023-07-20T10:08:44;11.52;;;4.00;;
24277;SDS011;12394;42.692;23.314;2023-07-20T10:11:12;7.67;;;3.77;;
24277;SDS011;12394;42.692;23.314;2023-07-20T10:13:41;9.47;;;3.73;;
24277;SDS011;12394;42.692;23.314;2023-07-20T10:16:12;12.50;;;3.70;;
24277;SDS011;12394;42.692;23.314;2023-07-20T10:21:24;10.83;;;3.80;;
24277;SDS011;12394;42.692;23.314;2023-07-20T10:23:50;10.50;;;3.20;;
24277;SDS011;12394;42.692;23.314;2023-07-20T10:26:16;9.73;;;3.30;;
24277;SDS011;12394;42.692;23.314;2023-07-20T10:28:41;6.80;;;3.10;;
24277;SDS011;12394;42.692;23.314;2023-07-20T10:31:07;13.33;;;3.63;;
24277;SDS011;12394;42.692;23.314;2023-07-20T10:33:34;8.50;;;3.13;;
24277;SDS011;12394;42.692;23.314;2023-07-20T10:36:01;9.17;;;3.00;;
24277;SDS011;12394;42.692;23.314;2023-07-20T10:43:47;8.47;;;3.20;;
24277;SDS011;12394;42.692;23.314;2023-07-20T10:46:13;6.63;;;3.10;;
24277;SDS011;12394;42.692;23.314;2023-07-20T10:51:47;13.07;;;5.40;;
24277;SDS011;12394;42.692;23.314;2023-07-20T10:56:42;6.37;;;2.90;;
24277;SDS011;12394;42.692;23.314;2023-07-20T10:59:18;9.13;;;3.50;;
24277;SDS011;12394;42.692;23.314;2023-07-20T11:01:45;10.43;;;3.20;;
24277;SDS011;12394;42.692;23.314;2023-07-20T11:04:12;14.10;;;4.07;;
24277;SDS011;12394;42.692;23.314;2023-07-20T11:06:38;8.63;;;3.50;;
24277;SDS011;12394;42.692;23.314;2023-07-20T11:11:39;10.50;;;4.13;;
24277;SDS011;12394;42.692;23.314;2023-07-20T11:14:06;8.17;;;3.77;;
24277;SDS011;12394;42.692;23.314;2023-07-20T11:16:45;12.70;;;3.83;;
24277;SDS011;12394;42.692;23.314;2023-07-20T11:19:19;8.97;;;3.43;;
24277;SDS011;12394;42.692;23.314;2023-07-20T11:21:52;10.87;;;3.57;;
24277;SDS011;12394;42.692;23.314;2023-07-20T11:24:18;12.50;;;3.40;;
24277;SDS011;12394;42.692;23.314;2023-07-20T11:26:53;13.53;;;4.13;;
24277;SDS011;12394;42.692;23.314;2023-07-20T11:29:20;8.83;;;3.80;;
24277;SDS011;12394;42.692;23.314;2023-07-20T11:31:48;10.63;;;3.80;;
24277;SDS011;12394;42.692;23.314;2023-07-20T11:34:14;8.27;;;4.03;;
24277;SDS011;12394;42.692;23.314;2023-07-20T11:36:41;13.13;;;4.43;;
24277;SDS011;12394;42.692;23.314;2023-07-20T11:39:08;15.33;;;4.57;;
24277;SDS011;12394;42.692;23.314;2023-07-20T11:41:35;13.30;;;4.60;;
24277;SDS011;12394;42.692;23.314;2023-07-20T11:44:00;17.17;;;9.03;;
24277;SDS011;12394;42.692;23.314;2023-07-20T11:46:27;13.50;;;5.03;;
24277;SDS011;12394;42.692;23.314;2023-07-20T11:48:59;15.70;;;4.57;;
24277;SDS011;12394;42.692;23.314;2023-07-20T11:51:26;10.23;;;4.50;;
24277;SDS011;12394;42.692;23.314;2023-07-20T11:53:55;8.77;;;4.77;;
24277;SDS011;12394;42.692;23.314;2023-07-20T11:56:25;9.33;;;4.47;;
24277;SDS011;12394;42.692;23.314;2023-07-20T11:58:53;11.83;;;4.17;;
24277;SDS011;12394;42.692;23.314;2023-07-20T12:01:20;15.53;;;4.33;;
24277;SDS011;12394;42.692;23.314;2023-07-20T12:03:47;12.37;;;4.57;;
24277;SDS011;12394;42.692;23.314;2023-07-20T12:06:13;12.57;;;5.80;;
24277;SDS011;12394;42.692;23.314;2023-07-20T12:08:42;7.83;;;4.30;;
24277;SDS011;12394;42.692;23.314;2023-07-20T12:11:08;7.70;;;4.30;;
24277;SDS011;12394;42.692;23.314;2023-07-20T12:13:37;6.60;;;4.07;;
24277;SDS011;12394;42.692;23.314;2023-07-20T12:16:14;9.27;;;4.37;;
24277;SDS011;12394;42.692;23.314;2023-07-20T12:18:42;8.43;;;3.73;;
24277;SDS011;12394;42.692;23.314;2023-07-20T12:21:08;9.37;;;4.13;;
24277;SDS011;12394;42.692;23.314;2023-07-20T12:23:35;11.67;;;4.23;;
24277;SDS011;12394;42.692;23.314;2023-07-20T12:26:07;8.27;;;3.80;;
24277;SDS011;12394;42.692;23.314;2023-07-20T12:28:35;8.83;;;3.67;;
24277;SDS011;12394;42.692;23.314;2023-07-20T12:31:08;12.87;;;5.10;;
24277;SDS011;12394;42.692;23.314;2023-07-20T12:33:34;10.37;;;4.27;;
24277;SDS011;12394;42.692;23.314;2023-07-20T12:36:00;9.27;;;3.50;;
24277;SDS011;12394;42.692;23.314;2023-07-20T12:38:26;9.73;;;3.40;;
24277;SDS011;12394;42.692;23.314;2023-07-20T12:40:52;11.50;;;3.20;;
24277;SDS011;12394;42.692;23.314;2023-07-20T12:43:20;11.43;;;4.20;;
24277;SDS011;12394;42.692;23.314;2023-07-20T12:45:45;14.63;;;4.97;;
24277;SDS011;12394;42.692;23.314;2023-07-20T12:48:11;10.10;;;4.60;;
24277;SDS011;12394;42.692;23.314;2023-07-20T12:50:36;14.33;;;5.20;;
24277;SDS011;12394;42.692;23.314;2023-07-20T12:53:02;17.67;;;4.57;;
24277;SDS011;12394;42.692;23.314;2023-07-20T12:55:28;14.70;;;4.50;;
24277;SDS011;12394;42.692;23.314;2023-07-20T12:57:54;10.13;;;4.13;;
24277;SDS011;12394;42.692;23.314;2023-07-20T13:00:20;11.73;;;4.03;;
24277;SDS011;12394;42.692;23.314;2023-07-20T13:02:48;6.67;;;3.90;;
24277;SDS011;12394;42.692;23.314;2023-07-20T13:05:14;9.37;;;4.40;;
24277;SDS011;12394;42.692;23.314;2023-07-20T13:07:40;9.70;;;4.60;;
24277;SDS011;12394;42.692;23.314;2023-07-20T13:10:06;10.67;;;5.53;;
24277;SDS011;12394;42.692;23.314;2023-07-20T13:12:33;11.13;;;4.17;;
24277;SDS011;12394;42.692;23.314;2023-07-20T13:15:01;10.33;;;4.00;;
24277;SDS011;12394;42.692;23.314;2023-07-20T13:17:30;11.50;;;3.80;;
24277;SDS011;12394;42.692;23.314;2023-07-20T13:19:56;11.00;;;4.87;;
24277;SDS011;12394;42.692;23.314;2023-07-20T13:22:22;5.37;;;3.10;;
24277;SDS011;12394;42.692;23.314;2023-07-20T13:24:48;12.47;;;4.60;;
24277;SDS011;12394;42.692;23.314;2023-07-20T13:27:15;10.47;;;5.50;;
24277;SDS011;12394;42.692;23.314;2023-07-20T13:29:41;10.50;;;4.60;;
24277;SDS011;12394;42.692;23.314;2023-07-20T13:32:07;8.90;;;4.33;;
24277;SDS011;12394;42.692;23.314;2023-07-20T13:34:33;13.90;;;5.73;;
24277;SDS011;12394;42.692;23.314;2023-07-20T13:36:58;10.57;;;3.90;;
24277;SDS011;12394;42.692;23.314;2023-07-20T13:39:24;13.13;;;4.40;;
24277;SDS011;12394;42.692;23.314;2023-07-20T13:41:52;12.40;;;4.13;;
24277;SDS011;12394;42.692;23.314;2023-07-20T13:44:19;11.97;;;4.30;;
24277;SDS011;12394;42.692;23.314;2023-07-20T13:46:45;12.57;;;4.23;;
24277;SDS011;12394;42.692;23.314;2023-07-20T13:49:11;12.60;;;3.53;;
24277;SDS011;12394;42.692;23.314;2023-07-20T13:51:36;10.93;;;4.27;;
24277;SDS011;12394;42.692;23.314;2023-07-20T13:54:02;11.30;;;3.77;;
24277;SDS011;12394;42.692;23.314;2023-07-20T13:56:27;16.10;;;3.53;;
24277;SDS011;12394;42.692;23.314;2023-07-20T13:58:53;12.97;;;5.13;;
24277;SDS011;12394;42.692;23.314;2023-07-20T14:01:18;11.23;;;4.07;;
24277;SDS011;12394;42.692;23.314;2023-07-20T14:03:44;13.77;;;3.43;;
24277;SDS011;12394;42.692;23.314;2023-07-20T14:06:09;13.83;;;4.03;;
24277;SDS011;12394;42.692;23.314;2023-07-20T14:08:37;12.50;;;3.90;;
24277;SDS011;12394;42.692;23.314;2023-07-20T14:11:02;16.50;;;4.73;;
24277;SDS011;12394;42.692;23.314;2023-07-20T14:13:28;14.00;;;3.93;;
24277;SDS011;12394;42.692;23.314;2023-07-20T14:15:53;17.37;;;4.77;;
24277;SDS011;12394;42.692;23.314;2023-07-20T14:18:19;10.20;;;3.63;;
24277;SDS011;12394;42.692;23.314;2023-07-20T14:20:44;9.17;;;3.60;;
24277;SDS011;12394;42.692;23.314;2023-07-20T14:23:09;12.20;;;5.13;;
24277;SDS011;12394;42.692;23.314;2023-07-20T14:25:35;7.43;;;3.13;;
24277;SDS011;12394;42.692;23.314;2023-07-20T14:28:00;16.97;;;4.50;;
24277;SDS011;12394;42.692;23.314;2023-07-20T14:30:26;11.20;;;3.47;;
24277;SDS011;12394;42.692;23.314;2023-07-20T14:32:52;15.67;;;4.20;;
24277;SDS011;12394;42.692;23.314;2023-07-20T14:35:17;14.47;;;3.90;;
24277;SDS011;12394;42.692;23.314;2023-07-20T14:37:42;15.57;;;3.50;;
24277;SDS011;12394;42.692;23.314;2023-07-20T14:40:11;9.17;;;3.17;;
24277;SDS011;12394;42.692;23.314;2023-07-20T14:42:38;13.67;;;3.40;;
24277;SDS011;12394;42.692;23.314;2023-07-20T14:45:03;11.63;;;3.83;;
24277;SDS011;12394;42.692;23.314;2023-07-20T14:47:30;8.50;;;2.93;;